Llangammarch Wells, United Kingdom
Current Conditions -  °F | °C
As of 9:50 PM on Tuesday 25 Nov 2014 (Local Time) from EGOP Reporting Station
Overcast Overcast  
Wind Chill: 39°   Ceiling: 3800
Heat Index: 43°   Visibility: 5mi
Dew Point: 41°   Wind: 6mph
Humidity: 93%   Direction: 60°ENE
Pressure: 30.03"   Gusts: NA
Location:  52.11°N, 3.55°W
Report Text: EGOP 252150Z AUTO 06005KT 8000 // OVC038/// 06/05 Q1017
Loading
Personal Weather Stations






























Interactive Weather Map New forecast layout! Learn more

10-Day Weather Forecast

Advertisements
Track Severe Weather on mobile